Time;durP1;ratioP1;P1;durP2;ratioP2;P2;SDS_P1;SDS_P2;PMS_P1;PMS_P2;Temp;Humidity;BMP_temperature;BMP_pressure;BME280_temperature;BME280_humidity;BME280_pressure;Samples;Min_cycle;Max_cycle;Signal;HPM_P1;HPM_P2
2023/04/09 00:00:10;;;;;;;13.07;8.85;;;;;;;;;;5119880;28;20049;-75
2023/04/09 00:02:36;;;;;;;13.23;8.45;;;;;;;;;;5118949;28;20369;-75
2023/04/09 00:05:03;;;;;;;15.15;9.38;;;;;;;;;;5100246;28;20031;-73
2023/04/09 00:07:29;;;;;;;15.18;8.88;;;;;;;;;;5118282;28;20258;-75
2023/04/09 00:09:55;;;;;;;15.00;8.68;;;;;;;;;;5099906;28;20066;-74
2023/04/09 00:12:24;;;;;;;13.48;8.43;;;;;;;;;;5117888;28;20061;-73
2023/04/09 00:14:50;;;;;;;14.85;10.02;;;;;;;;;;5099958;28;20077;-75
2023/04/09 00:17:16;;;;;;;14.23;8.82;;;;;;;;;;5099267;28;20100;-75
2023/04/09 00:19:42;;;;;;;14.43;8.85;;;;;;;;;;5100706;28;20300;-73
2023/04/09 00:22:08;;;;;;;13.32;8.98;;;;;;;;;;5100406;28;20033;-75
2023/04/09 00:24:34;;;;;;;16.55;9.35;;;;;;;;;;5119031;28;20443;-74
2023/04/09 00:27:00;;;;;;;16.77;9.13;;;;;;;;;;5118189;28;20332;-75
2023/04/09 00:29:26;;;;;;;13.57;9.38;;;;;;;;;;5118433;28;20034;-74
2023/04/09 00:31:52;;;;;;;15.43;8.90;;;;;;;;;;5119538;28;20053;-75
2023/04/09 00:34:18;;;;;;;14.05;8.70;;;;;;;;;;5117419;28;20032;-74
2023/04/09 00:36:44;;;;;;;15.43;9.73;;;;;;;;;;5118230;28;20339;-76
2023/04/09 00:39:10;;;;;;;14.30;9.20;;;;;;;;;;5101979;28;20028;-75
2023/04/09 00:41:36;;;;;;;18.23;10.07;;;;;;;;;;5096892;28;20027;-73
2023/04/09 00:44:02;;;;;;;17.70;10.50;;;;;;;;;;5078101;28;20024;-74
2023/04/09 00:46:28;;;;;;;26.63;15.13;;;;;;;;;;5098327;28;20039;-76
2023/04/09 00:48:54;;;;;;;19.98;10.15;;;;;;;;;;5080246;28;20020;-75
2023/04/09 00:51:20;;;;;;;19.77;9.80;;;;;;;;;;5098177;28;20031;-74
2023/04/09 00:53:47;;;;;;;15.15;8.60;;;;;;;;;;5098529;28;20201;-75
2023/04/09 00:56:14;;;;;;;17.20;9.27;;;;;;;;;;5098117;28;20548;-73
2023/04/09 00:58:40;;;;;;;15.98;8.50;;;;;;;;;;5077717;28;20039;-74
2023/04/09 01:01:06;;;;;;;13.55;8.57;;;;;;;;;;5077462;28;20059;-74
2023/04/09 01:03:33;;;;;;;17.80;10.88;;;;;;;;;;5081888;28;20027;-74
2023/04/09 01:05:59;;;;;;;20.30;9.95;;;;;;;;;;5081100;28;20047;-74
2023/04/09 01:08:34;;;;;;;22.55;11.15;;;;;;;;;;5098870;28;20054;-73
2023/04/09 01:11:15;;;;;;;16.40;9.73;;;;;;;;;;5081071;28;20622;-73
2023/04/09 01:13:57;;;;;;;14.93;9.23;;;;;;;;;;5098581;28;20035;-76
2023/04/09 01:16:23;;;;;;;18.60;10.05;;;;;;;;;;5081150;28;20138;-76
2023/04/09 01:18:57;;;;;;;26.23;10.68;;;;;;;;;;5081039;28;20078;-75
2023/04/09 01:21:26;;;;;;;17.42;10.18;;;;;;;;;;5081425;28;20023;-76
2023/04/09 01:23:58;;;;;;;21.30;11.18;;;;;;;;;;5081445;28;20036;-76
2023/04/09 01:26:43;;;;;;;19.63;11.60;;;;;;;;;;5099678;28;20047;-74
2023/04/09 01:29:09;;;;;;;27.25;13.00;;;;;;;;;;5104012;28;20035;-74
2023/04/09 01:31:37;;;;;;;24.63;13.10;;;;;;;;;;5104010;28;20020;-74
2023/04/09 01:34:03;;;;;;;22.70;11.75;;;;;;;;;;5084876;28;20073;-74
2023/04/09 01:36:31;;;;;;;22.10;13.10;;;;;;;;;;5103366;28;20250;-74
2023/04/09 01:38:57;;;;;;;24.23;12.95;;;;;;;;;;5102706;28;20034;-73
2023/04/09 01:41:25;;;;;;;23.23;13.10;;;;;;;;;;5085778;28;20026;-74
2023/04/09 01:43:51;;;;;;;23.60;12.45;;;;;;;;;;5103640;28;20031;-73
2023/04/09 01:46:18;;;;;;;30.85;13.50;;;;;;;;;;5084887;28;20052;-74
2023/04/09 01:48:45;;;;;;;25.27;12.73;;;;;;;;;;5084943;28;20115;-75
2023/04/09 01:51:13;;;;;;;22.88;12.82;;;;;;;;;;5103086;28;20040;-74
2023/04/09 01:53:39;;;;;;;24.90;12.40;;;;;;;;;;5102072;28;20042;-75
2023/04/09 01:56:05;;;;;;;28.58;13.45;;;;;;;;;;5083745;28;20272;-74
2023/04/09 01:58:33;;;;;;;22.35;12.57;;;;;;;;;;5101794;28;20020;-75
2023/04/09 02:01:06;;;;;;;26.13;13.70;;;;;;;;;;5101784;28;20020;-75
2023/04/09 02:03:46;;;;;;;25.67;13.50;;;;;;;;;;5102093;28;20079;-76
2023/04/09 02:06:28;;;;;;;23.13;12.45;;;;;;;;;;5102116;28;20024;-75
2023/04/09 02:08:54;;;;;;;26.83;13.52;;;;;;;;;;5101852;28;20027;-76
2023/04/09 02:11:22;;;;;;;20.90;12.52;;;;;;;;;;5102215;28;20340;-74
2023/04/09 02:13:49;;;;;;;24.52;12.43;;;;;;;;;;5102878;28;20022;-75
2023/04/09 02:16:15;;;;;;;23.05;12.07;;;;;;;;;;5083728;28;20030;-75
2023/04/09 02:18:41;;;;;;;21.27;11.70;;;;;;;;;;5085133;28;20332;-75
2023/04/09 02:21:07;;;;;;;24.08;11.98;;;;;;;;;;5085057;28;20056;-75
2023/04/09 02:23:33;;;;;;;24.00;12.93;;;;;;;;;;5102982;28;20024;-76
2023/04/09 02:25:59;;;;;;;25.23;12.18;;;;;;;;;;5103901;28;20027;-74
2023/04/09 02:28:25;;;;;;;20.25;11.18;;;;;;;;;;5085251;28;20091;-75
2023/04/09 02:30:51;;;;;;;23.55;12.82;;;;;;;;;;5084771;28;20036;-75
2023/04/09 02:33:17;;;;;;;22.70;10.88;;;;;;;;;;5103120;28;20234;-75
2023/04/09 02:35:44;;;;;;;24.10;11.98;;;;;;;;;;5102854;28;20034;-75
2023/04/09 02:38:12;;;;;;;25.60;12.43;;;;;;;;;;5102726;28;20728;-76
2023/04/09 02:40:40;;;;;;;28.77;14.00;;;;;;;;;;5108053;28;20259;-75
2023/04/09 02:43:06;;;;;;;25.42;11.13;;;;;;;;;;5123434;28;20023;-76
2023/04/09 02:45:32;;;;;;;26.02;13.13;;;;;;;;;;5104856;28;20065;-75
2023/04/09 02:47:58;;;;;;;22.55;12.63;;;;;;;;;;5122580;28;20019;-75
2023/04/09 02:50:23;;;;;;;22.80;12.48;;;;;;;;;;5103419;28;20234;-76
2023/04/09 02:52:49;;;;;;;30.75;13.45;;;;;;;;;;5103390;28;20039;-75
2023/04/09 02:55:16;;;;;;;22.48;12.85;;;;;;;;;;5103935;28;20098;-75
2023/04/09 02:57:42;;;;;;;21.77;11.40;;;;;;;;;;5103918;28;20347;-75
2023/04/09 03:00:09;;;;;;;23.42;12.30;;;;;;;;;;5121859;28;20026;-74
2023/04/09 03:02:35;;;;;;;23.98;11.80;;;;;;;;;;5122502;28;20077;-76
2023/04/09 03:05:01;;;;;;;20.08;10.77;;;;;;;;;;5104260;28;20031;-74
2023/04/09 03:07:27;;;;;;;20.70;11.13;;;;;;;;;;5122902;28;20034;-76
2023/04/09 03:09:53;;;;;;;23.67;10.95;;;;;;;;;;5119957;28;20331;-74
2023/04/09 03:12:19;;;;;;;16.70;10.60;;;;;;;;;;5101439;28;20020;-76
2023/04/09 03:14:45;;;;;;;24.92;10.90;;;;;;;;;;5100967;28;20047;-75
2023/04/09 03:17:11;;;;;;;19.58;10.48;;;;;;;;;;5102089;28;20521;-75
2023/04/09 03:19:37;;;;;;;22.33;11.57;;;;;;;;;;5101841;28;20027;-75
2023/04/09 03:22:03;;;;;;;20.50;9.85;;;;;;;;;;5101264;28;20091;-76
2023/04/09 03:24:31;;;;;;;19.13;10.18;;;;;;;;;;5095544;28;20320;-75
2023/04/09 03:26:57;;;;;;;19.10;10.68;;;;;;;;;;5118662;28;20068;-75
2023/04/09 03:29:23;;;;;;;23.42;10.40;;;;;;;;;;5117952;28;20028;-74
2023/04/09 03:31:49;;;;;;;20.20;10.60;;;;;;;;;;5108891;28;20031;-75
2023/04/09 03:34:15;;;;;;;20.23;11.13;;;;;;;;;;5102934;28;20024;-75
2023/04/09 03:36:41;;;;;;;20.63;10.85;;;;;;;;;;5105880;28;20032;-75
2023/04/09 03:39:07;;;;;;;21.58;10.25;;;;;;;;;;5108841;28;20284;-74
2023/04/09 03:41:33;;;;;;;20.85;11.55;;;;;;;;;;5089268;28;20050;-75
2023/04/09 03:43:59;;;;;;;22.95;10.75;;;;;;;;;;5102958;28;20027;-77
2023/04/09 03:46:25;;;;;;;22.40;12.65;;;;;;;;;;5109104;28;20058;-74
2023/04/09 03:48:51;;;;;;;22.38;10.80;;;;;;;;;;5104955;28;20219;-76
2023/04/09 03:51:17;;;;;;;19.77;10.02;;;;;;;;;;5086739;28;20047;-76
2023/04/09 03:53:44;;;;;;;29.33;13.07;;;;;;;;;;5107528;28;20024;-76
2023/04/09 03:56:10;;;;;;;23.08;11.73;;;;;;;;;;5101369;28;20020;-76
2023/04/09 03:58:36;;;;;;;22.13;10.93;;;;;;;;;;5109600;28;20024;-75
2023/04/09 04:01:02;;;;;;;20.98;10.48;;;;;;;;;;5115861;28;20019;-75
2023/04/09 04:03:29;;;;;;;19.13;10.82;;;;;;;;;;5100281;28;20024;-75
2023/04/09 04:06:01;;;;;;;22.92;11.70;;;;;;;;;;5104274;28;20051;-76
2023/04/09 04:08:27;;;;;;;20.73;10.68;;;;;;;;;;5111920;28;20020;-76
2023/04/09 04:10:53;;;;;;;20.35;10.30;;;;;;;;;;5101893;28;20292;-75
2023/04/09 04:13:19;;;;;;;25.83;12.20;;;;;;;;;;5104393;28;20020;-75
2023/04/09 04:15:45;;;;;;;24.55;11.00;;;;;;;;;;5109469;28;20028;-74
2023/04/09 04:18:11;;;;;;;24.63;11.95;;;;;;;;;;5114781;28;20347;-75
2023/04/09 04:20:37;;;;;;;21.25;10.70;;;;;;;;;;5101557;28;20129;-75
2023/04/09 04:23:03;;;;;;;17.85;11.02;;;;;;;;;;5120407;28;20335;-74
2023/04/09 04:25:30;;;;;;;20.77;8.93;;;;;;;;;;5085137;28;20020;-76
2023/04/09 04:27:56;;;;;;;19.92;10.20;;;;;;;;;;5101655;28;20016;-75
2023/04/09 04:30:22;;;;;;;23.15;11.00;;;;;;;;;;5116010;28;20038;-76
2023/04/09 04:32:48;;;;;;;21.83;10.55;;;;;;;;;;5102249;28;20018;-75
2023/04/09 04:35:15;;;;;;;15.63;8.45;;;;;;;;;;5103537;28;20031;-75
2023/04/09 04:37:41;;;;;;;17.65;9.60;;;;;;;;;;5119646;28;20039;-76
2023/04/09 04:40:07;;;;;;;23.23;10.38;;;;;;;;;;5100353;28;20028;-75
2023/04/09 04:42:33;;;;;;;19.35;9.45;;;;;;;;;;5100474;28;20114;-74
2023/04/09 04:44:59;;;;;;;22.75;9.95;;;;;;;;;;5120116;28;20069;-75
2023/04/09 04:47:26;;;;;;;15.98;9.25;;;;;;;;;;5119622;28;20016;-75
2023/04/09 04:49:52;;;;;;;17.63;10.57;;;;;;;;;;5099369;28;20032;-76
2023/04/09 04:52:18;;;;;;;20.60;9.18;;;;;;;;;;5094844;28;20204;-74
2023/04/09 04:54:44;;;;;;;19.42;9.73;;;;;;;;;;5101338;28;20260;-75
2023/04/09 04:57:10;;;;;;;21.08;10.23;;;;;;;;;;5119611;28;20287;-75
2023/04/09 04:59:40;;;;;;;27.30;11.70;;;;;;;;;;5119472;28;20035;-75
2023/04/09 05:02:06;;;;;;;26.75;12.20;;;;;;;;;;5120253;28;20038;-75
2023/04/09 05:04:32;;;;;;;23.17;13.27;;;;;;;;;;5124324;28;20203;-76
2023/04/09 05:06:58;;;;;;;22.25;10.52;;;;;;;;;;5123793;28;20023;-76
2023/04/09 05:09:24;;;;;;;20.67;10.80;;;;;;;;;;5085467;28;20100;-76
2023/04/09 05:11:50;;;;;;;21.45;11.32;;;;;;;;;;5114074;28;20028;-74
2023/04/09 05:14:16;;;;;;;26.55;12.20;;;;;;;;;;5106082;28;20054;-76
2023/04/09 05:16:42;;;;;;;19.92;10.30;;;;;;;;;;5124328;28;20261;-77
2023/04/09 05:19:08;;;;;;;19.08;10.63;;;;;;;;;;5123574;28;20016;-76
2023/04/09 05:21:34;;;;;;;16.98;9.85;;;;;;;;;;5123729;28;20024;-76
2023/04/09 05:24:00;;;;;;;20.15;10.95;;;;;;;;;;5122414;28;20043;-75
2023/04/09 05:26:26;;;;;;;24.10;11.25;;;;;;;;;;5124298;28;20026;-76
2023/04/09 05:28:52;;;;;;;23.17;10.50;;;;;;;;;;5123958;28;20474;-76
2023/04/09 05:31:18;;;;;;;20.88;9.50;;;;;;;;;;5123867;28;20329;-75
2023/04/09 05:33:45;;;;;;;19.52;9.25;;;;;;;;;;5108154;28;20047;-75
2023/04/09 05:36:15;;;;;;;16.10;9.73;;;;;;;;;;5103703;28;20031;-74
2023/04/09 05:38:41;;;;;;;26.13;11.93;;;;;;;;;;5103575;28;20012;-75
2023/04/09 05:41:08;;;;;;;19.63;10.55;;;;;;;;;;5102979;28;20083;-74
2023/04/09 05:43:34;;;;;;;31.05;11.77;;;;;;;;;;5102673;28;20062;-75
2023/04/09 05:46:00;;;;;;;22.13;11.13;;;;;;;;;;5103696;28;20111;-75
2023/04/09 05:48:26;;;;;;;28.38;13.18;;;;;;;;;;5103555;28;20016;-75
2023/04/09 05:50:52;;;;;;;26.42;13.52;;;;;;;;;;5104072;28;20108;-76
2023/04/09 05:53:21;;;;;;;26.77;13.43;;;;;;;;;;5102317;28;20078;-75
2023/04/09 05:55:50;;;;;;;26.17;13.82;;;;;;;;;;5103603;28;20087;-76
2023/04/09 05:58:20;;;;;;;28.20;13.80;;;;;;;;;;5105402;28;20012;-76
2023/04/09 06:00:46;;;;;;;29.33;14.27;;;;;;;;;;5122513;28;20082;-75
2023/04/09 06:03:12;;;;;;;28.15;12.02;;;;;;;;;;5122318;28;20007;-76
2023/04/09 06:05:38;;;;;;;22.50;11.48;;;;;;;;;;5121868;28;20035;-76
2023/04/09 06:08:05;;;;;;;30.00;14.43;;;;;;;;;;5121712;28;20091;-76
2023/04/09 06:10:34;;;;;;;28.05;13.98;;;;;;;;;;5117825;28;20036;-76
2023/04/09 06:13:00;;;;;;;23.48;13.27;;;;;;;;;;5101425;28;20051;-75
2023/04/09 06:15:26;;;;;;;22.73;12.52;;;;;;;;;;5100639;28;20032;-75
2023/04/09 06:17:52;;;;;;;21.95;12.02;;;;;;;;;;5101412;28;20384;-74
2023/04/09 06:20:18;;;;;;;25.42;13.18;;;;;;;;;;5100728;28;20051;-76
2023/04/09 06:22:44;;;;;;;23.02;12.98;;;;;;;;;;5100811;28;20020;-75
2023/04/09 06:25:12;;;;;;;23.88;13.52;;;;;;;;;;5103264;28;20097;-75
2023/04/09 06:27:38;;;;;;;26.00;12.07;;;;;;;;;;5102956;28;20054;-76
2023/04/09 06:30:05;;;;;;;24.65;11.63;;;;;;;;;;5100866;28;20027;-76
2023/04/09 06:32:31;;;;;;;23.40;11.98;;;;;;;;;;5082429;28;20020;-75
2023/04/09 06:34:57;;;;;;;24.45;13.13;;;;;;;;;;5100822;28;20024;-74
2023/04/09 06:37:23;;;;;;;20.02;11.63;;;;;;;;;;5102372;28;20031;-74
2023/04/09 06:39:49;;;;;;;22.35;11.68;;;;;;;;;;5102622;28;20039;-76
2023/04/09 06:42:15;;;;;;;24.02;11.45;;;;;;;;;;5121209;27;20028;-74
2023/04/09 06:44:41;;;;;;;20.13;12.20;;;;;;;;;;5123502;28;20027;-76
2023/04/09 06:47:07;;;;;;;24.27;10.30;;;;;;;;;;5119017;28;20028;-74
2023/04/09 06:49:33;;;;;;;18.05;10.02;;;;;;;;;;5083064;28;20024;-76
2023/04/09 06:52:00;;;;;;;19.10;10.82;;;;;;;;;;5101478;28;20024;-75
2023/04/09 06:54:26;;;;;;;18.20;10.55;;;;;;;;;;5083231;28;20020;-75
2023/04/09 06:56:52;;;;;;;20.75;11.13;;;;;;;;;;5103026;28;20023;-75
2023/04/09 06:59:18;;;;;;;20.05;8.75;;;;;;;;;;5086657;28;20047;-74
2023/04/09 07:01:44;;;;;;;17.65;9.55;;;;;;;;;;5083040;28;20028;-74
2023/04/09 07:04:10;;;;;;;18.20;10.27;;;;;;;;;;5082377;28;20347;-73
2023/04/09 07:06:36;;;;;;;16.27;9.63;;;;;;;;;;5100763;28;20019;-75
2023/04/09 07:09:02;;;;;;;18.77;9.80;;;;;;;;;;5081775;28;20031;-75
2023/04/09 07:11:28;;;;;;;13.70;9.00;;;;;;;;;;5099087;28;20070;-75
2023/04/09 07:13:55;;;;;;;13.73;8.63;;;;;;;;;;5099260;28;20028;-74
2023/04/09 07:16:22;;;;;;;17.42;10.05;;;;;;;;;;5081700;28;20044;-74
2023/04/09 07:18:48;;;;;;;14.80;8.95;;;;;;;;;;5080857;28;20048;-76
2023/04/09 07:21:14;;;;;;;20.08;9.40;;;;;;;;;;5099610;28;20036;-74
2023/04/09 07:23:40;;;;;;;15.18;8.98;;;;;;;;;;5081284;28;20034;-76
2023/04/09 07:26:06;;;;;;;12.85;8.38;;;;;;;;;;5081198;28;20083;-73
2023/04/09 07:28:32;;;;;;;13.25;8.63;;;;;;;;;;5098751;28;20016;-76
2023/04/09 07:31:01;;;;;;;31.35;15.82;;;;;;;;;;5082109;28;20046;-74
2023/04/09 07:33:27;;;;;;;15.07;8.77;;;;;;;;;;5081494;28;20016;-76
2023/04/09 07:35:53;;;;;;;15.00;8.95;;;;;;;;;;5080622;28;20339;-73
2023/04/09 07:38:19;;;;;;;16.05;8.15;;;;;;;;;;5098932;28;20099;-72
2023/04/09 07:40:46;;;;;;;16.08;8.77;;;;;;;;;;5098558;28;20036;-75
2023/04/09 07:43:12;;;;;;;13.70;8.60;;;;;;;;;;5098860;28;20020;-76
2023/04/09 07:45:38;;;;;;;14.73;8.48;;;;;;;;;;5100748;28;20020;-72
2023/04/09 07:48:04;;;;;;;13.48;7.85;;;;;;;;;;5102187;28;20031;-74
2023/04/09 07:50:30;;;;;;;14.82;9.05;;;;;;;;;;5095590;28;20086;-74
2023/04/09 07:52:56;;;;;;;16.42;8.45;;;;;;;;;;5077936;28;20108;-74
2023/04/09 07:55:22;;;;;;;17.33;10.02;;;;;;;;;;5097199;28;20031;-73
2023/04/09 07:57:48;;;;;;;15.40;9.23;;;;;;;;;;5077806;28;20028;-75
2023/04/09 08:00:14;;;;;;;16.42;8.75;;;;;;;;;;5091407;28;20444;-74
2023/04/09 08:02:40;;;;;;;15.10;8.52;;;;;;;;;;5075813;28;20112;-74
2023/04/09 08:05:06;;;;;;;15.38;9.27;;;;;;;;;;5097226;28;20028;-76
2023/04/09 08:07:33;;;;;;;16.20;8.10;;;;;;;;;;5097576;28;20095;-75
2023/04/09 08:09:59;;;;;;;12.93;8.40;;;;;;;;;;5091752;28;20040;-72
2023/04/09 08:12:25;;;;;;;16.05;8.32;;;;;;;;;;5099507;28;20030;-75
2023/04/09 08:14:51;;;;;;;15.00;7.97;;;;;;;;;;5097114;28;20091;-75
2023/04/09 08:17:17;;;;;;;13.98;8.15;;;;;;;;;;5097606;28;20048;-74
2023/04/09 08:19:43;;;;;;;13.43;8.50;;;;;;;;;;5077957;28;20036;-76
2023/04/09 08:22:10;;;;;;;12.35;7.28;;;;;;;;;;5082614;28;20220;-73
2023/04/09 08:24:37;;;;;;;12.68;8.13;;;;;;;;;;5081020;28;20415;-75
2023/04/09 08:27:03;;;;;;;14.02;7.97;;;;;;;;;;5081139;28;20036;-75
2023/04/09 08:29:30;;;;;;;14.75;8.52;;;;;;;;;;5096129;28;20020;-75
2023/04/09 08:31:56;;;;;;;12.70;8.60;;;;;;;;;;5099666;28;20138;-76
2023/04/09 08:34:22;;;;;;;12.68;7.47;;;;;;;;;;5101139;28;20304;-76
2023/04/09 08:36:48;;;;;;;11.20;7.85;;;;;;;;;;5078319;28;20024;-75
2023/04/09 08:39:17;;;;;;;11.50;7.32;;;;;;;;;;5078010;28;20024;-74
2023/04/09 08:41:45;;;;;;;11.43;7.45;;;;;;;;;;5089607;28;20440;-74
2023/04/09 08:44:11;;;;;;;12.48;7.03;;;;;;;;;;5071070;28;20020;-73
2023/04/09 08:46:37;;;;;;;11.15;7.57;;;;;;;;;;5089529;28;20112;-75
2023/04/09 08:49:03;;;;;;;12.68;7.55;;;;;;;;;;5090647;28;20539;-73
2023/04/09 08:51:30;;;;;;;9.25;6.68;;;;;;;;;;5071300;28;20028;-74
2023/04/09 08:53:57;;;;;;;9.63;6.63;;;;;;;;;;5089622;28;20389;-73
2023/04/09 08:56:23;;;;;;;10.35;6.55;;;;;;;;;;5071223;28;20028;-73
2023/04/09 08:58:50;;;;;;;10.30;6.45;;;;;;;;;;5089414;28;20061;-73
2023/04/09 09:01:19;;;;;;;9.90;6.43;;;;;;;;;;5088944;28;20066;-73
2023/04/09 09:04:02;;;;;;;8.98;5.55;;;;;;;;;;5087214;28;20396;-75
2023/04/09 09:06:31;;;;;;;9.32;6.10;;;;;;;;;;5091346;28;20051;-73
2023/04/09 09:09:00;;;;;;;10.60;6.38;;;;;;;;;;5109701;28;20034;-75
2023/04/09 09:11:27;;;;;;;10.63;6.32;;;;;;;;;;5110219;28;20114;-76
2023/04/09 09:14:03;;;;;;;8.60;5.43;;;;;;;;;;5091454;28;20274;-75
2023/04/09 09:16:31;;;;;;;7.35;5.65;;;;;;;;;;5109220;28;20032;-74
2023/04/09 09:18:58;;;;;;;7.88;5.28;;;;;;;;;;5109493;28;20024;-76
2023/04/09 09:21:26;;;;;;;6.63;4.38;;;;;;;;;;5096191;28;20483;-74
2023/04/09 09:23:52;;;;;;;8.25;6.28;;;;;;;;;;5091307;28;20035;-75
2023/04/09 09:26:19;;;;;;;8.02;5.10;;;;;;;;;;5095343;28;20024;-76
2023/04/09 09:28:46;;;;;;;9.25;4.85;;;;;;;;;;5096312;28;20023;-75
2023/04/09 09:31:13;;;;;;;7.82;5.05;;;;;;;;;;5108307;28;20036;-76
2023/04/09 09:33:39;;;;;;;8.30;5.15;;;;;;;;;;5089449;28;20024;-73
2023/04/09 09:36:06;;;;;;;7.65;4.82;;;;;;;;;;5107632;28;20549;-74
2023/04/09 09:38:32;;;;;;;7.88;5.40;;;;;;;;;;5107618;28;20035;-73
2023/04/09 09:40:58;;;;;;;7.60;4.38;;;;;;;;;;5089276;28;20080;-75
2023/04/09 09:43:25;;;;;;;7.10;5.10;;;;;;;;;;5107781;28;20467;-75
2023/04/09 09:45:52;;;;;;;7.55;4.68;;;;;;;;;;5089086;28;20031;-74
2023/04/09 09:48:18;;;;;;;5.57;4.25;;;;;;;;;;5108669;28;20023;-76
2023/04/09 09:50:45;;;;;;;6.35;4.32;;;;;;;;;;5111726;28;20043;-74
2023/04/09 09:53:11;;;;;;;5.88;4.05;;;;;;;;;;5112804;28;20249;-75
2023/04/09 09:55:41;;;;;;;7.35;4.30;;;;;;;;;;5111908;28;20019;-76
2023/04/09 09:58:18;;;;;;;6.60;4.43;;;;;;;;;;5113137;28;20491;-77
2023/04/09 10:00:47;;;;;;;5.57;3.92;;;;;;;;;;5112812;28;20028;-74
2023/04/09 10:03:20;;;;;;;5.60;3.72;;;;;;;;;;5112010;28;20027;-75
2023/04/09 10:05:48;;;;;;;5.20;4.07;;;;;;;;;;5112995;28;20024;-75
2023/04/09 10:08:15;;;;;;;5.00;3.80;;;;;;;;;;5113237;28;20047;-75
2023/04/09 10:10:41;;;;;;;4.28;3.25;;;;;;;;;;5113010;28;20038;-75
2023/04/09 10:13:09;;;;;;;3.95;3.55;;;;;;;;;;5112857;28;20108;-75
2023/04/09 10:15:35;;;;;;;3.75;3.17;;;;;;;;;;5112495;28;20459;-76
2023/04/09 10:18:02;;;;;;;3.53;2.72;;;;;;;;;;5112700;28;20063;-77
2023/04/09 10:20:33;;;;;;;4.03;3.03;;;;;;;;;;5112727;28;20022;-76
2023/04/09 10:23:01;;;;;;;2.53;2.33;;;;;;;;;;5112789;28;20484;-77
2023/04/09 10:25:27;;;;;;;3.70;2.70;;;;;;;;;;5112801;28;20104;-75
2023/04/09 10:28:14;;;;;;;3.67;2.80;;;;;;;;;;5112656;28;20023;-74
2023/04/09 10:30:40;;;;;;;2.80;2.55;;;;;;;;;;5112249;28;20035;-77
2023/04/09 10:33:10;;;;;;;4.63;2.90;;;;;;;;;;5112590;28;20511;-73
2023/04/09 10:35:36;;;;;;;4.68;3.35;;;;;;;;;;5112418;28;20032;-73
2023/04/09 10:38:02;;;;;;;2.92;2.55;;;;;;;;;;5112676;28;20012;-73
2023/04/09 10:40:28;;;;;;;2.85;1.98;;;;;;;;;;5112773;28;20031;-75
2023/04/09 10:42:55;;;;;;;3.70;2.38;;;;;;;;;;5112340;28;20046;-73
2023/04/09 10:45:21;;;;;;;3.83;3.45;;;;;;;;;;5112023;28;20098;-74
2023/04/09 10:47:50;;;;;;;2.92;2.38;;;;;;;;;;5112083;28;20024;-73
2023/04/09 10:50:19;;;;;;;3.20;2.65;;;;;;;;;;5112041;28;20112;-73
2023/04/09 10:52:45;;;;;;;2.88;2.28;;;;;;;;;;5112044;28;20027;-74
2023/04/09 10:55:31;;;;;;;4.43;2.70;;;;;;;;;;5112262;28;20072;-74
2023/04/09 10:57:58;;;;;;;2.90;2.47;;;;;;;;;;5111833;28;20015;-75
2023/04/09 11:00:24;;;;;;;2.88;2.20;;;;;;;;;;5110997;28;20054;-73
2023/04/09 11:03:03;;;;;;;5.35;3.13;;;;;;;;;;5094114;28;20464;-74
2023/04/09 11:05:33;;;;;;;3.90;2.85;;;;;;;;;;5111917;28;20019;-76
2023/04/09 11:08:03;;;;;;;3.30;2.83;;;;;;;;;;5093573;28;20097;-73
2023/04/09 11:10:30;;;;;;;4.85;2.85;;;;;;;;;;5111521;28;20042;-75
2023/04/09 11:12:56;;;;;;;2.97;2.70;;;;;;;;;;5111737;28;20065;-75
2023/04/09 11:15:22;;;;;;;2.90;2.65;;;;;;;;;;5111429;28;20103;-76
2023/04/09 11:17:48;;;;;;;3.10;2.80;;;;;;;;;;5111503;28;20044;-76
2023/04/09 11:20:16;;;;;;;2.30;1.85;;;;;;;;;;5093462;28;20059;-75
2023/04/09 11:22:42;;;;;;;2.75;2.40;;;;;;;;;;5111560;28;20052;-76
2023/04/09 11:25:08;;;;;;;3.08;2.78;;;;;;;;;;5111539;28;20023;-74
2023/04/09 11:27:38;;;;;;;4.22;2.80;;;;;;;;;;5111366;28;20016;-74
2023/04/09 11:30:05;;;;;;;3.58;2.42;;;;;;;;;;5111381;28;20032;-74
2023/04/09 11:32:31;;;;;;;2.63;2.10;;;;;;;;;;5111624;28;20324;-76
2023/04/09 11:34:57;;;;;;;2.88;2.63;;;;;;;;;;5111360;28;20023;-76
2023/04/09 11:37:23;;;;;;;4.25;3.10;;;;;;;;;;5111166;28;20167;-75
2023/04/09 11:39:53;;;;;;;3.55;2.63;;;;;;;;;;5092957;28;20019;-76
2023/04/09 11:42:20;;;;;;;3.65;2.95;;;;;;;;;;5111284;28;20487;-76
2023/04/09 11:44:47;;;;;;;4.15;2.67;;;;;;;;;;5092729;28;20031;-76
2023/04/09 11:47:13;;;;;;;2.33;2.13;;;;;;;;;;5111306;28;20036;-76
2023/04/09 11:49:40;;;;;;;3.30;2.63;;;;;;;;;;5110886;28;20031;-73
2023/04/09 11:52:06;;;;;;;2.75;2.20;;;;;;;;;;5110900;28;20043;-76
2023/04/09 11:54:35;;;;;;;3.40;2.50;;;;;;;;;;5111121;28;20473;-76
2023/04/09 11:57:04;;;;;;;2.55;2.33;;;;;;;;;;5110882;28;20103;-77
2023/04/09 11:59:30;;;;;;;3.72;2.30;;;;;;;;;;5110779;28;20502;-74
2023/04/09 12:02:00;;;;;;;2.35;2.15;;;;;;;;;;5110573;28;20031;-74
2023/04/09 12:04:26;;;;;;;2.30;2.10;;;;;;;;;;5110744;28;20068;-75
2023/04/09 12:07:01;;;;;;;3.78;2.90;;;;;;;;;;5110980;28;20028;-73
2023/04/09 12:09:27;;;;;;;2.78;2.55;;;;;;;;;;5092413;28;20119;-76
2023/04/09 12:11:53;;;;;;;2.55;2.35;;;;;;;;;;5110396;28;20333;-75
2023/04/09 12:14:21;;;;;;;3.03;2.13;;;;;;;;;;5110810;28;20018;-76
2023/04/09 12:16:50;;;;;;;3.95;3.13;;;;;;;;;;5110296;28;20024;-75
2023/04/09 12:19:16;;;;;;;;;;;;;;;;;;5110958;28;20019;-76
2023/04/09 12:21:49;;;;;;;3.30;2.25;;;;;;;;;;5110269;28;19904;-75
2023/04/09 12:24:16;;;;;;;4.57;2.95;;;;;;;;;;5110718;28;20278;-75
2023/04/09 12:26:42;;;;;;;2.30;2.10;;;;;;;;;;5110574;28;20027;-76
2023/04/09 12:29:08;;;;;;;3.03;2.22;;;;;;;;;;5110705;28;20028;-75
2023/04/09 12:31:35;;;;;;;2.67;2.22;;;;;;;;;;5110116;28;20043;-74
2023/04/09 12:34:01;;;;;;;2.90;2.15;;;;;;;;;;5092106;28;20514;-76
2023/04/09 12:36:27;;;;;;;2.20;2.00;;;;;;;;;;5110243;28;20102;-76
2023/04/09 12:38:53;;;;;;;2.50;2.28;;;;;;;;;;5091816;28;20026;-76
2023/04/09 12:41:19;;;;;;;3.13;1.98;;;;;;;;;;5092076;28;20023;-75
2023/04/09 12:43:46;;;;;;;3.13;2.42;;;;;;;;;;5109957;28;20495;-76
2023/04/09 12:46:12;;;;;;;2.67;2.40;;;;;;;;;;5109662;28;20523;-76
2023/04/09 12:48:38;;;;;;;2.58;2.17;;;;;;;;;;5110252;28;20383;-74
2023/04/09 12:51:05;;;;;;;3.50;2.55;;;;;;;;;;5109920;28;20088;-76
2023/04/09 12:53:31;;;;;;;2.42;2.13;;;;;;;;;;5110210;28;20051;-75
2023/04/09 12:55:57;;;;;;;2.20;2.00;;;;;;;;;;5091408;28;20494;-76
2023/04/09 12:58:23;;;;;;;3.80;2.72;;;;;;;;;;5091458;28;20102;-76
2023/04/09 13:00:49;;;;;;;1.80;1.70;;;;;;;;;;5109658;28;20058;-76
2023/04/09 13:03:15;;;;;;;2.88;2.42;;;;;;;;;;5110022;28;20040;-76
2023/04/09 13:05:42;;;;;;;2.25;2.00;;;;;;;;;;5109737;28;20046;-74
2023/04/09 13:08:08;;;;;;;2.67;2.47;;;;;;;;;;5110031;28;20028;-75
2023/04/09 13:10:35;;;;;;;2.47;1.90;;;;;;;;;;5091576;28;20032;-76
2023/04/09 13:13:02;;;;;;;3.88;2.33;;;;;;;;;;5109831;28;20070;-76
2023/04/09 13:15:28;;;;;;;1.77;1.67;;;;;;;;;;5090870;28;20242;-77
2023/04/09 13:17:54;;;;;;;2.58;1.90;;;;;;;;;;5091159;28;20135;-76
2023/04/09 13:20:20;;;;;;;2.53;2.30;;;;;;;;;;5109698;28;20490;-76
2023/04/09 13:22:47;;;;;;;3.60;2.28;;;;;;;;;;5109759;28;20027;-74
2023/04/09 13:25:17;;;;;;;3.53;1.88;;;;;;;;;;5095042;28;20027;-77
2023/04/09 13:27:43;;;;;;;2.22;2.03;;;;;;;;;;5112037;28;20020;-76
2023/04/09 13:30:09;;;;;;;2.20;2.00;;;;;;;;;;5111932;28;20199;-77
2023/04/09 13:32:35;;;;;;;1.92;1.83;;;;;;;;;;5111778;28;20016;-77
2023/04/09 13:35:01;;;;;;;2.60;2.40;;;;;;;;;;5111831;28;20020;-74
2023/04/09 13:37:27;;;;;;;2.63;2.15;;;;;;;;;;5111864;28;20140;-75
2023/04/09 13:39:53;;;;;;;2.38;1.88;;;;;;;;;;5111786;28;20103;-75
2023/04/09 13:42:20;;;;;;;1.80;1.70;;;;;;;;;;5111751;28;20421;-76
2023/04/09 13:44:45;;;;;;;3.17;2.15;;;;;;;;;;5112053;28;20015;-74
2023/04/09 13:47:12;;;;;;;3.50;1.83;;;;;;;;;;5112843;28;20106;-75
2023/04/09 13:49:39;;;;;;;3.00;2.45;;;;;;;;;;5113412;28;20495;-76
2023/04/09 13:52:05;;;;;;;2.13;1.88;;;;;;;;;;5113335;28;20028;-74
2023/04/09 13:54:32;;;;;;;2.20;2.00;;;;;;;;;;5113234;28;20487;-74
2023/04/09 13:56:58;;;;;;;2.75;2.50;;;;;;;;;;5094969;28;20032;-76
2023/04/09 13:59:24;;;;;;;3.17;2.35;;;;;;;;;;5113040;28;20034;-75
2023/04/09 14:01:50;;;;;;;2.38;1.85;;;;;;;;;;5113411;28;20058;-75
2023/04/09 14:04:16;;;;;;;3.42;2.28;;;;;;;;;;5113152;28;20456;-76
2023/04/09 14:06:42;;;;;;;2.58;1.95;;;;;;;;;;5112905;28;20073;-74
2023/04/09 14:09:09;;;;;;;1.98;1.80;;;;;;;;;;5113347;28;20090;-75
2023/04/09 14:11:35;;;;;;;2.50;2.30;;;;;;;;;;5113227;28;20487;-75
2023/04/09 14:14:01;;;;;;;2.03;1.83;;;;;;;;;;5113375;28;20050;-75
2023/04/09 14:16:29;;;;;;;2.60;1.95;;;;;;;;;;5094582;28;20073;-75
2023/04/09 14:18:55;;;;;;;3.92;1.88;;;;;;;;;;5113036;28;20032;-74
2023/04/09 14:21:21;;;;;;;3.53;1.85;;;;;;;;;;5112920;28;20027;-74
2023/04/09 14:23:47;;;;;;;2.45;2.22;;;;;;;;;;5112864;28;20322;-74
2023/04/09 14:26:14;;;;;;;2.67;1.90;;;;;;;;;;5094462;28;20031;-75
2023/04/09 14:28:41;;;;;;;2.17;1.98;;;;;;;;;;5112524;28;20016;-75